Time,TemperatureF,DewpointF,PressureIn,WindDirection,WindDirectionDegrees,WindSpeedMPH,WindSpeedGustMPH,Humidity,HourlyPrecipIn,Conditions,Clouds,dailyrainin,SoftwareType,DateUTC
2013-07-07 00:04:00,57.3,51.9,29.76,NE,41,0.0,0.0,82,0.00,,,0.00,Wunderground v.1.15,2013-07-07 07:04:00,
2013-07-07 00:10:00,57.2,51.8,29.76,NE,41,0.0,0.0,82,0.00,,,0.00,Wunderground v.1.15,2013-07-07 07:10:00,
2013-07-07 00:15:00,57.2,51.8,29.76,NE,41,0.0,0.0,82,0.00,,,0.00,Wunderground v.1.15,2013-07-07 07:15:00,
2013-07-07 00:20:00,57.3,52.2,29.76,NE,44,0.0,0.0,83,0.00,,,0.00,Wunderground v.1.15,2013-07-07 07:20:00,
2013-07-07 00:35:00,58.3,52.8,29.76,SW,215,1.0,1.0,82,0.00,,,0.00,Wunderground v.1.15,2013-07-07 07:35:00,
2013-07-07 00:40:00,58.4,52.6,29.76,SSW,212,1.0,1.0,81,0.00,,,0.00,Wunderground v.1.15,2013-07-07 07:40:00,
2013-07-07 00:50:00,58.4,52.6,29.76,SW,217,0.0,1.0,81,0.00,,,0.00,Wunderground v.1.15,2013-07-07 07:50:00,
2013-07-07 01:00:00,58.3,52.5,29.76,SSW,205,0.0,0.0,81,0.00,,,0.00,Wunderground v.1.15,2013-07-07 08:00:00,
2013-07-07 01:10:00,58.1,52.3,29.76,SSW,206,0.0,0.0,81,0.00,,,0.00,Wunderground v.1.15,2013-07-07 08:10:00,
2013-07-07 01:25:00,58.0,52.2,29.76,SSW,205,1.0,1.0,81,0.00,,,0.00,Wunderground v.1.15,2013-07-07 08:25:00,
2013-07-07 01:35:00,57.9,52.4,29.76,SSW,200,1.0,1.0,82,0.00,,,0.00,Wunderground v.1.15,2013-07-07 08:35:00,
2013-07-07 01:40:00,57.8,52.3,29.75,SSW,200,1.0,1.0,82,0.00,,,0.00,Wunderground v.1.15,2013-07-07 08:40:00,
2013-07-07 01:50:00,56.9,52.4,29.76,East,92,1.0,2.0,85,0.00,,,0.00,Wunderground v.1.15,2013-07-07 08:50:00,
2013-07-07 02:00:00,56.2,52.1,29.76,NE,49,1.0,1.0,86,0.00,,,0.00,Wunderground v.1.15,2013-07-07 09:00:00,
2013-07-07 02:10:00,55.8,52.0,29.76,NE,49,0.0,0.0,87,0.00,,,0.00,Wunderground v.1.15,2013-07-07 09:10:00,
2013-07-07 02:20:00,55.5,51.7,29.76,NE,49,0.0,0.0,87,0.00,,,0.00,Wunderground v.1.15,2013-07-07 09:20:00,
2013-07-07 02:30:00,55.0,51.2,29.76,NE,49,0.0,0.0,87,0.00,,,0.00,Wunderground v.1.15,2013-07-07 09:30:00,
2013-07-07 02:45:00,54.3,51.1,29.76,NE,49,0.0,0.0,89,0.00,,,0.00,Wunderground v.1.15,2013-07-07 09:45:00,
2013-07-07 02:55:00,54.4,51.2,29.76,NE,49,0.0,0.0,89,0.00,,,0.00,Wunderground v.1.15,2013-07-07 09:55:00,
2013-07-07 03:10:00,54.6,52.0,29.76,ESE,116,0.0,0.0,91,0.00,,,0.00,Wunderground v.1.15,2013-07-07 10:10:00,
2013-07-07 03:15:00,54.8,51.9,29.76,ESE,116,0.0,0.0,90,0.00,,,0.00,Wunderground v.1.15,2013-07-07 10:15:00,
2013-07-07 03:30:00,54.7,51.2,29.76,ESE,116,0.0,0.0,88,0.00,,,0.00,Wunderground v.1.15,2013-07-07 10:30:00,
2013-07-07 03:35:00,54.6,51.1,29.76,ESE,116,0.0,0.0,88,0.00,,,0.00,Wunderground v.1.15,2013-07-07 10:35:00,
2013-07-07 03:45:00,54.5,51.3,29.76,ESE,116,0.0,0.0,89,0.00,,,0.00,Wunderground v.1.15,2013-07-07 10:45:00,
2013-07-07 04:00:00,54.4,51.5,29.76,ESE,116,0.0,0.0,90,0.00,,,0.00,Wunderground v.1.15,2013-07-07 11:00:00,
2013-07-07 04:05:00,54.4,51.5,29.76,ESE,116,0.0,0.0,90,0.00,,,0.00,Wunderground v.1.15,2013-07-07 11:05:00,
2013-07-07 04:10:00,54.5,51.6,29.76,ESE,116,0.0,0.0,90,0.00,,,0.00,Wunderground v.1.15,2013-07-07 11:10:00,
2013-07-07 04:20:00,54.5,51.6,29.76,ESE,116,0.0,0.0,90,0.00,,,0.00,Wunderground v.1.15,2013-07-07 11:20:00,
2013-07-07 04:35:00,54.5,51.9,29.76,ESE,116,0.0,0.0,91,0.00,,,0.00,Wunderground v.1.15,2013-07-07 11:35:00,
2013-07-07 04:40:00,54.4,51.8,29.76,ESE,116,0.0,0.0,91,0.00,,,0.00,Wunderground v.1.15,2013-07-07 11:40:00,
2013-07-07 04:50:00,54.0,51.4,29.77,ESE,116,0.0,0.0,91,0.00,,,0.00,Wunderground v.1.15,2013-07-07 11:50:00,
2013-07-07 05:00:00,54.1,51.5,29.77,ESE,116,0.0,0.0,91,0.00,,,0.00,Wunderground v.1.15,2013-07-07 12:00:00,
2013-07-07 05:10:00,53.9,51.0,29.76,ESE,116,0.0,0.0,90,0.00,,,0.00,Wunderground v.1.15,2013-07-07 12:10:00,
2013-07-07 05:25:00,52.7,49.8,29.77,ESE,116,0.0,0.0,90,0.00,,,0.00,Wunderground v.1.15,2013-07-07 12:25:00,
2013-07-07 05:30:00,52.6,49.8,29.77,ESE,116,0.0,0.0,90,0.00,,,0.00,Wunderground v.1.15,2013-07-07 12:30:00,
2013-07-07 05:40:00,51.8,49.0,29.77,ESE,116,0.0,1.0,90,0.00,,,0.00,Wunderground v.1.15,2013-07-07 12:40:00,
2013-07-07 05:45:00,51.9,49.6,29.77,ESE,116,0.0,1.0,92,0.00,,,0.00,Wunderground v.1.15,2013-07-07 12:45:00,
2013-07-07 05:55:00,52.8,50.5,29.77,SSW,206,1.0,1.0,92,0.00,,,0.00,Wunderground v.1.15,2013-07-07 12:55:00,
2013-07-07 06:00:00,52.9,50.3,29.78,SSW,206,1.0,5.0,91,0.00,,,0.00,Wunderground v.1.15,2013-07-07 13:00:00,
2013-07-07 06:05:00,53.3,50.7,29.78,SW,223,2.0,5.0,91,0.00,,,0.00,Wunderground v.1.15,2013-07-07 13:05:00,
2013-07-07 06:15:00,53.3,50.4,29.78,SSW,212,1.0,2.0,90,0.00,,,0.00,Wunderground v.1.15,2013-07-07 13:15:00,
2013-07-07 06:20:00,53.3,50.4,29.78,SSW,206,0.0,3.0,90,0.00,,,0.00,Wunderground v.1.15,2013-07-07 13:20:00,
2013-07-07 06:25:00,53.3,50.4,29.78,South,175,1.0,6.0,90,0.00,,,0.00,Wunderground v.1.15,2013-07-07 13:25:00,
2013-07-07 06:35:00,53.5,50.6,29.78,SSW,204,2.0,2.0,90,0.00,,,0.00,Wunderground v.1.15,2013-07-07 13:35:00,
2013-07-07 06:40:00,53.6,50.7,29.78,SW,222,1.0,3.0,90,0.00,,,0.00,Wunderground v.1.15,2013-07-07 13:40:00,
2013-07-07 06:50:00,54.0,51.1,29.79,SSW,202,2.0,3.0,90,0.00,,,0.00,Wunderground v.1.15,2013-07-07 13:50:00,
2013-07-07 07:00:00,54.4,51.5,29.79,SSW,207,2.0,2.0,90,0.00,,,0.00,Wunderground v.1.15,2013-07-07 14:00:00,
2013-07-07 07:05:00,54.6,51.4,29.79,SSW,207,1.0,2.0,89,0.00,,,0.00,Wunderground v.1.15,2013-07-07 14:05:00,
2013-07-07 07:15:00,55.1,51.6,29.79,SSW,206,1.0,4.0,88,0.00,,,0.00,Wunderground v.1.15,2013-07-07 14:15:00,
2013-07-07 07:20:00,55.3,51.8,29.79,SSW,200,1.0,2.0,88,0.00,,,0.00,Wunderground v.1.15,2013-07-07 14:20:00,
2013-07-07 07:25:00,55.7,52.2,29.79,SSW,200,2.0,2.0,88,0.00,,,0.00,Wunderground v.1.15,2013-07-07 14:25:00,
2013-07-07 07:35:00,56.2,52.4,29.79,SSW,200,1.0,1.0,87,0.00,,,0.00,Wunderground v.1.15,2013-07-07 14:35:00,
2013-07-07 07:45:00,57.0,52.5,29.80,SSW,204,0.0,0.0,85,0.00,,,0.00,Wunderground v.1.15,2013-07-07 14:45:00,
2013-07-07 07:55:00,58.0,53.5,29.80,WNW,301,0.0,1.0,85,0.00,,,0.00,Wunderground v.1.15,2013-07-07 14:55:00,
2013-07-07 08:00:00,58.7,53.2,29.80,WNW,301,0.0,2.0,82,0.00,,,0.00,Wunderground v.1.15,2013-07-07 15:00:00,
2013-07-07 08:05:00,59.4,53.6,29.80,WNW,301,1.0,2.0,81,0.00,,,0.00,Wunderground v.1.15,2013-07-07 15:05:00,
2013-07-07 08:20:00,60.9,53.6,29.80,WNW,301,0.0,0.0,77,0.00,,,0.00,Wunderground v.1.15,2013-07-07 15:20:00,
2013-07-07 08:25:00,61.3,53.7,29.80,WNW,301,0.0,4.0,76,0.00,,,0.00,Wunderground v.1.15,2013-07-07 15:25:00,
2013-07-07 08:35:00,61.9,53.9,29.80,WNW,301,0.0,0.0,75,0.00,,,0.00,Wunderground v.1.15,2013-07-07 15:35:00,
2013-07-07 08:40:00,62.2,53.8,29.80,WNW,301,0.0,2.0,74,0.00,,,0.00,Wunderground v.1.15,2013-07-07 15:40:00,
2013-07-07 08:50:00,61.8,52.7,29.81,SSW,209,2.0,4.0,72,0.00,,,0.00,Wunderground v.1.15,2013-07-07 15:50:00,
2013-07-07 09:00:00,60.6,52.6,29.81,South,187,3.0,3.0,75,0.00,,,0.00,Wunderground v.1.15,2013-07-07 16:00:00,
2013-07-07 09:20:00,61.8,52.7,29.81,SSW,207,3.0,3.0,72,0.00,,,0.00,Wunderground v.1.15,2013-07-07 16:20:00,
2013-07-07 09:30:00,62.6,53.4,29.81,SSW,211,2.0,2.0,72,0.00,,,0.00,Wunderground v.1.15,2013-07-07 16:30:00,
2013-07-07 09:35:00,63.6,53.2,29.81,SW,234,1.0,2.0,69,0.00,,,0.00,Wunderground v.1.15,2013-07-07 16:35:00,
2013-07-07 09:45:00,63.9,53.9,29.80,SSW,197,2.0,4.0,70,0.00,,,0.00,Wunderground v.1.15,2013-07-07 16:45:00,
2013-07-07 09:55:00,64.7,54.3,29.80,SSW,195,1.0,2.0,69,0.00,,,0.00,Wunderground v.1.15,2013-07-07 16:55:00,
2013-07-07 10:00:00,65.5,53.4,29.80,SSW,198,1.0,1.0,65,0.00,,,0.00,Wunderground v.1.15,2013-07-07 17:00:00,
2013-07-07 10:10:00,67.3,54.3,29.80,SSW,199,0.0,0.0,63,0.00,,,0.00,Wunderground v.1.15,2013-07-07 17:10:00,
2013-07-07 10:20:00,67.5,52.7,29.80,SSW,208,2.0,2.0,59,0.00,,,0.00,Wunderground v.1.15,2013-07-07 17:20:00,
2013-07-07 10:30:00,68.1,54.1,29.80,SSW,204,2.0,2.0,61,0.00,,,0.00,Wunderground v.1.15,2013-07-07 17:30:00,
2013-07-07 10:40:00,69.5,53.6,29.80,SSW,202,1.0,4.0,57,0.00,,,0.00,Wunderground v.1.15,2013-07-07 17:40:00,
2013-07-07 10:50:00,69.9,54.4,29.80,SW,219,3.0,5.0,58,0.00,,,0.00,Wunderground v.1.15,2013-07-07 17:50:00,
2013-07-07 11:00:00,69.5,53.6,29.80,SW,223,4.0,6.0,57,0.00,,,0.00,Wunderground v.1.15,2013-07-07 18:00:00,
2013-07-07 11:10:00,70.9,54.4,29.80,SSW,196,5.0,5.0,56,0.00,,,0.00,Wunderground v.1.15,2013-07-07 18:10:00,
2013-07-07 11:30:00,73.7,53.3,29.80,SSW,210,3.0,3.0,49,0.00,,,0.00,Wunderground v.1.15,2013-07-07 18:30:00,
2013-07-07 11:40:00,74.5,53.5,29.80,South,182,3.0,3.0,48,0.00,,,0.00,Wunderground v.1.15,2013-07-07 18:40:00,
2013-07-07 11:50:00,76.3,54.6,29.80,WNW,294,2.0,2.0,47,0.00,,,0.00,Wunderground v.1.15,2013-07-07 18:50:00,
2013-07-07 12:00:00,77.6,54.0,29.80,SSW,210,1.0,1.0,44,0.00,,,0.00,Wunderground v.1.15,2013-07-07 19:00:00,
2013-07-07 12:10:00,76.5,52.3,29.79,SSW,198,4.0,5.0,43,0.00,,,0.00,Wunderground v.1.15,2013-07-07 19:10:00,
2013-07-07 12:20:00,76.9,53.3,29.79,SSW,211,3.0,3.0,44,0.00,,,0.00,Wunderground v.1.15,2013-07-07 19:20:00,
2013-07-07 12:30:00,79.5,52.4,29.79,SSW,210,1.0,1.0,39,0.00,,,0.00,Wunderground v.1.15,2013-07-07 19:30:00,
2013-07-07 12:40:00,79.1,52.0,29.79,SSW,207,4.0,4.0,39,0.00,,,0.00,Wunderground v.1.15,2013-07-07 19:40:00,
2013-07-07 12:45:00,79.3,52.2,29.78,SW,219,4.0,4.0,39,0.00,,,0.00,Wunderground v.1.15,2013-07-07 19:45:00,
2013-07-07 12:55:00,80.5,51.8,29.78,SW,215,2.0,3.0,37,0.00,,,0.00,Wunderground v.1.15,2013-07-07 19:55:00,
2013-07-07 13:00:00,81.8,53.0,29.78,SW,223,2.0,5.0,37,0.00,,,0.00,Wunderground v.1.15,2013-07-07 20:00:00,
2013-07-07 13:05:00,82.0,50.9,29.78,SW,215,2.0,5.0,34,0.00,,,0.00,Wunderground v.1.15,2013-07-07 20:05:00,
2013-07-07 13:15:00,82.0,50.1,29.78,NW,313,2.0,4.0,33,0.00,,,0.00,Wunderground v.1.15,2013-07-07 20:15:00,
2013-07-07 13:25:00,84.3,51.2,29.78,WSW,257,2.0,2.0,32,0.00,,,0.00,Wunderground v.1.15,2013-07-07 20:25:00,
2013-07-07 13:30:00,84.2,48.5,29.78,SW,216,2.0,2.0,29,0.00,,,0.00,Wunderground v.1.15,2013-07-07 20:30:00,
2013-07-07 13:40:00,82.5,50.5,29.78,SW,214,3.0,3.0,33,0.00,,,0.00,Wunderground v.1.15,2013-07-07 20:40:00,
2013-07-07 13:45:00,83.3,51.2,29.78,SSW,204,3.0,3.0,33,0.00,,,0.00,Wunderground v.1.15,2013-07-07 20:45:00,
2013-07-07 13:55:00,84.5,50.5,29.77,SW,224,2.0,3.0,31,0.00,,,0.00,Wunderground v.1.15,2013-07-07 20:55:00,
2013-07-07 14:00:00,84.4,50.5,29.77,SSW,203,2.0,3.0,31,0.00,,,0.00,Wunderground v.1.15,2013-07-07 21:00:00,
2013-07-07 14:10:00,85.5,50.5,29.77,SSW,213,2.0,2.0,30,0.00,,,0.00,Wunderground v.1.15,2013-07-07 21:10:00,
2013-07-07 14:20:00,85.7,50.7,29.77,WNW,291,2.0,2.0,30,0.00,,,0.00,Wunderground v.1.15,2013-07-07 21:20:00,
2013-07-07 14:25:00,85.2,48.4,29.76,SSW,202,3.0,7.0,28,0.00,,,0.00,Wunderground v.1.15,2013-07-07 21:25:00,
2013-07-07 14:35:00,84.2,47.6,29.76,SSW,198,5.0,5.0,28,0.00,,,0.00,Wunderground v.1.15,2013-07-07 21:35:00,
2013-07-07 14:40:00,84.4,47.7,29.76,WSW,243,3.0,3.0,28,0.00,,,0.00,Wunderground v.1.15,2013-07-07 21:40:00,
2013-07-07 14:50:00,85.0,47.3,29.76,SSW,209,4.0,4.0,27,0.00,,,0.00,Wunderground v.1.15,2013-07-07 21:50:00,
2013-07-07 14:55:00,85.7,47.9,29.76,SSW,205,4.0,4.0,27,0.00,,,0.00,Wunderground v.1.15,2013-07-07 21:55:00,
2013-07-07 15:05:00,86.3,49.4,29.76,SSW,196,3.0,9.0,28,0.00,,,0.00,Wunderground v.1.15,2013-07-07 22:05:00,
2013-07-07 15:10:00,85.6,45.7,29.76,SSW,211,6.0,6.0,25,0.00,,,0.00,Wunderground v.1.15,2013-07-07 22:10:00,
2013-07-07 15:20:00,86.0,47.1,29.76,SSW,197,6.0,6.0,26,0.00,,,0.00,Wunderground v.1.15,2013-07-07 22:20:00,
2013-07-07 15:25:00,86.3,46.3,29.75,SSW,193,5.0,8.0,25,0.00,,,0.00,Wunderground v.1.15,2013-07-07 22:25:00,
2013-07-07 15:30:00,86.2,46.2,29.75,SSW,204,6.0,9.0,25,0.00,,,0.00,Wunderground v.1.15,2013-07-07 22:30:00,
2013-07-07 15:40:00,86.6,44.4,29.75,SSW,207,5.0,6.0,23,0.00,,,0.00,Wunderground v.1.15,2013-07-07 22:40:00,
2013-07-07 15:50:00,86.4,45.3,29.75,SSW,209,6.0,10.0,24,0.00,,,0.00,Wunderground v.1.15,2013-07-07 22:50:00,
2013-07-07 16:00:00,85.7,46.9,29.75,SW,225,8.0,8.0,26,0.00,,,0.00,Wunderground v.1.15,2013-07-07 23:00:00,
2013-07-07 16:10:00,85.4,46.6,29.75,SSW,205,7.0,7.0,26,0.00,,,0.00,Wunderground v.1.15,2013-07-07 23:10:00,
2013-07-07 16:25:00,85.1,47.4,29.75,SSW,195,8.0,11.0,27,0.00,,,0.00,Wunderground v.1.15,2013-07-07 23:25:00,
2013-07-07 16:40:00,84.9,48.2,29.74,SW,225,9.0,9.0,28,0.00,,,0.00,Wunderground v.1.15,2013-07-07 23:40:00,
2013-07-07 16:50:00,84.4,48.7,29.74,SW,219,9.0,9.0,29,0.00,,,0.00,Wunderground v.1.15,2013-07-07 23:50:00,
2013-07-07 17:00:00,84.5,48.8,29.74,SW,219,8.0,13.0,29,0.00,,,0.00,Wunderground v.1.15,2013-07-08 00:00:00,
2013-07-07 17:05:00,83.9,50.0,29.74,South,188,9.0,13.0,31,0.00,,,0.00,Wunderground v.1.15,2013-07-08 00:05:00,
2013-07-07 17:10:00,83.9,49.1,29.74,SSW,209,9.0,9.0,30,0.00,,,0.00,Wunderground v.1.15,2013-07-08 00:10:00,
2013-07-07 17:20:00,83.8,49.9,29.74,SSW,213,8.0,10.0,31,0.00,,,0.00,Wunderground v.1.15,2013-07-08 00:20:00,
2013-07-07 17:30:00,83.0,50.1,29.74,SSW,194,9.0,9.0,32,0.00,,,0.00,Wunderground v.1.15,2013-07-08 00:30:00,
2013-07-07 17:40:00,82.4,51.2,29.73,SW,219,10.0,11.0,34,0.00,,,0.00,Wunderground v.1.15,2013-07-08 00:40:00,
2013-07-07 17:45:00,82.6,49.7,29.73,SSW,202,9.0,11.0,32,0.00,,,0.00,Wunderground v.1.15,2013-07-08 00:45:00,
2013-07-07 17:50:00,82.9,50.8,29.73,SW,217,8.0,11.0,33,0.00,,,0.00,Wunderground v.1.15,2013-07-08 00:50:00,
2013-07-07 17:55:00,82.3,50.3,29.73,SSW,213,9.0,11.0,33,0.00,,,0.00,Wunderground v.1.15,2013-07-08 00:55:00,
2013-07-07 18:05:00,81.8,51.5,29.73,SSW,203,10.0,10.0,35,0.00,,,0.00,Wunderground v.1.15,2013-07-08 01:05:00,
2013-07-07 18:15:00,81.6,52.1,29.74,South,185,8.0,8.0,36,0.00,,,0.00,Wunderground v.1.15,2013-07-08 01:15:00,
2013-07-07 18:20:00,81.6,52.1,29.73,SW,217,8.0,10.0,36,0.00,,,0.00,Wunderground v.1.15,2013-07-08 01:20:00,
2013-07-07 18:25:00,81.0,52.3,29.74,SSW,209,8.0,10.0,37,0.00,,,0.00,Wunderground v.1.15,2013-07-08 01:25:00,
2013-07-07 18:35:00,80.9,52.9,29.74,SSW,213,8.0,9.0,38,0.00,,,0.00,Wunderground v.1.15,2013-07-08 01:35:00,
2013-07-07 18:40:00,80.4,52.5,29.74,SW,215,8.0,10.0,38,0.00,,,0.00,Wunderground v.1.15,2013-07-08 01:40:00,
2013-07-07 18:50:00,79.4,53.0,29.74,SW,221,11.0,11.0,40,0.00,,,0.00,Wunderground v.1.15,2013-07-08 01:50:00,
2013-07-07 19:00:00,78.7,53.7,29.74,SSW,207,9.0,9.0,42,0.00,,,0.00,Wunderground v.1.15,2013-07-08 02:00:00,
2013-07-07 19:05:00,78.5,53.5,29.74,SSW,206,9.0,10.0,42,0.00,,,0.00,Wunderground v.1.15,2013-07-08 02:05:00,
2013-07-07 19:15:00,77.7,54.0,29.75,SW,216,8.0,9.0,44,0.00,,,0.00,Wunderground v.1.15,2013-07-08 02:15:00,
2013-07-07 19:20:00,77.5,53.9,29.75,SSW,203,8.0,8.0,44,0.00,,,0.00,Wunderground v.1.15,2013-07-08 02:20:00,
2013-07-07 19:25:00,77.2,54.2,29.75,SW,225,7.0,8.0,45,0.00,,,0.00,Wunderground v.1.15,2013-07-08 02:25:00,
2013-07-07 19:35:00,76.3,54.0,29.75,SSW,205,6.0,8.0,46,0.00,,,0.00,Wunderground v.1.15,2013-07-08 02:35:00,
2013-07-07 19:45:00,75.6,54.5,29.75,SSW,206,8.0,8.0,48,0.00,,,0.00,Wunderground v.1.15,2013-07-08 02:45:00,
2013-07-07 19:55:00,75.0,54.5,29.75,SSW,212,7.0,10.0,49,0.00,,,0.00,Wunderground v.1.15,2013-07-08 02:55:00,
2013-07-07 20:00:00,74.7,54.3,29.76,SSW,207,7.0,10.0,49,0.00,,,0.00,Wunderground v.1.15,2013-07-08 03:00:00,
2013-07-07 20:10:00,73.8,54.0,29.75,SSW,212,9.0,9.0,50,0.00,,,0.00,Wunderground v.1.15,2013-07-08 03:10:00,
2013-07-07 20:15:00,73.3,54.1,29.76,SSW,211,9.0,9.0,51,0.00,,,0.00,Wunderground v.1.15,2013-07-08 03:15:00,
2013-07-07 20:30:00,72.2,54.1,29.76,SSW,211,7.0,8.0,53,0.00,,,0.00,Wunderground v.1.15,2013-07-08 03:30:00,
2013-07-07 20:40:00,71.7,54.2,29.76,SSW,209,7.0,7.0,54,0.00,,,0.00,Wunderground v.1.15,2013-07-08 03:40:00,
2013-07-07 20:55:00,71.1,54.1,29.77,SSW,211,4.0,4.0,55,0.00,,,0.00,Wunderground v.1.15,2013-07-08 03:55:00,
2013-07-07 21:00:00,70.8,54.3,29.77,SW,215,3.0,3.0,56,0.00,,,0.00,Wunderground v.1.15,2013-07-08 04:00:00,
2013-07-07 21:05:00,70.5,54.0,29.78,SSW,205,2.0,5.0,56,0.00,,,0.00,Wunderground v.1.15,2013-07-08 04:05:00,
2013-07-07 21:10:00,70.4,54.0,29.78,WSW,255,2.0,2.0,56,0.00,,,0.00,Wunderground v.1.15,2013-07-08 04:10:00,
2013-07-07 21:20:00,68.3,52.9,29.79,NW,308,0.0,0.0,58,0.00,,,0.00,Wunderground v.1.15,2013-07-08 04:20:00,
2013-07-07 21:30:00,66.7,52.8,29.79,NW,308,0.0,0.0,61,0.00,,,0.00,Wunderground v.1.15,2013-07-08 04:30:00,
2013-07-07 21:35:00,66.2,53.2,29.79,NW,308,0.0,0.0,63,0.00,,,0.00,Wunderground v.1.15,2013-07-08 04:35:00,
2013-07-07 21:40:00,66.2,53.2,29.79,SW,216,0.0,2.0,63,0.00,,,0.00,Wunderground v.1.15,2013-07-08 04:40:00,
2013-07-07 21:45:00,66.3,53.3,29.80,NW,313,0.0,2.0,63,0.00,,,0.00,Wunderground v.1.15,2013-07-08 04:45:00,
2013-07-07 21:50:00,65.9,52.5,29.80,NE,46,1.0,2.0,62,0.00,,,0.00,Wunderground v.1.15,2013-07-08 04:50:00,
2013-07-07 22:00:00,63.8,52.6,29.80,NE,51,1.0,1.0,67,0.00,,,0.00,Wunderground v.1.15,2013-07-08 05:00:00,
2013-07-07 22:05:00,63.2,52.5,29.80,NE,51,0.0,1.0,68,0.00,,,0.00,Wunderground v.1.15,2013-07-08 05:05:00,
2013-07-07 22:15:00,62.3,52.4,29.81,NE,51,0.0,1.0,70,0.00,,,0.00,Wunderground v.1.15,2013-07-08 05:15:00,
2013-07-07 22:25:00,61.8,52.3,29.81,NE,51,0.0,0.0,71,0.00,,,0.00,Wunderground v.1.15,2013-07-08 05:25:00,
2013-07-07 22:30:00,61.6,52.5,29.81,NE,51,0.0,0.0,72,0.00,,,0.00,Wunderground v.1.15,2013-07-08 05:30:00,
2013-07-07 22:35:00,61.3,52.2,29.81,NE,51,0.0,0.0,72,0.00,,,0.00,Wunderground v.1.15,2013-07-08 05:35:00,
2013-07-07 22:40:00,60.8,51.7,29.81,NE,51,1.0,1.0,72,0.00,,,0.00,Wunderground v.1.15,2013-07-08 05:40:00,
2013-07-07 22:45:00,60.4,51.7,29.82,NE,51,0.0,1.0,73,0.00,,,0.00,Wunderground v.1.15,2013-07-08 05:45:00,
2013-07-07 22:55:00,59.9,51.6,29.82,NE,52,0.0,0.0,74,0.00,,,0.00,Wunderground v.1.15,2013-07-08 05:55:00,
2013-07-07 23:00:00,59.6,52.0,29.81,NE,52,0.0,0.0,76,0.00,,,0.00,Wunderground v.1.15,2013-07-08 06:00:00,
2013-07-07 23:10:00,58.8,52.0,29.82,NNE,13,0.0,3.0,78,0.00,,,0.00,Wunderground v.1.15,2013-07-08 06:10:00,
2013-07-07 23:15:00,58.6,52.1,29.82,North,9,1.0,3.0,79,0.00,,,0.00,Wunderground v.1.15,2013-07-08 06:15:00,
2013-07-07 23:25:00,58.3,52.2,29.82,North,9,1.0,1.0,80,0.00,,,0.00,Wunderground v.1.15,2013-07-08 06:25:00,
2013-07-07 23:30:00,58.1,52.0,29.82,North,9,0.0,0.0,80,0.00,,,0.00,Wunderground v.1.15,2013-07-08 06:30:00,
2013-07-07 23:35:00,58.0,51.9,29.82,North,9,0.0,0.0,80,0.00,,,0.00,Wunderground v.1.15,2013-07-08 06:35:00,
2013-07-07 23:45:00,57.9,51.8,29.82,North,9,0.0,0.0,80,0.00,,,0.00,Wunderground v.1.15,2013-07-08 06:45:00,
2013-07-07 23:50:00,57.6,51.8,29.82,NNE,25,0.0,0.0,81,0.00,,,0.00,Wunderground v.1.15,2013-07-08 06:50:00,